Time;durP1;ratioP1;P1;durP2;ratioP2;P2;SDS_P1;SDS_P2;PMS_P1;PMS_P2;Temp;Humidity;BMP_temperature;BMP_pressure;BME280_temperature;BME280_humidity;BME280_pressure;Samples;Min_cycle;Max_cycle;Signal;HPM_P1;HPM_P2
2021/06/07 00:01:49;;;;;;;10.58;4.95;;;;;;;14.63;95.91;98636.25;1870730;76;22109;-61
2021/06/07 00:04:27;;;;;;;10.55;5.47;;;;;;;14.61;96.05;98638.88;1870622;76;22137;-62
2021/06/07 00:07:06;;;;;;;11.08;5.12;;;;;;;14.60;96.18;98634.98;1870557;76;22136;-55
2021/06/07 00:09:40;;;;;;;8.90;5.05;;;;;;;14.75;96.93;98633.52;1870861;76;22141;-61
2021/06/07 00:12:17;;;;;;;9.40;5.60;;;;;;;15.11;95.45;98633.96;1870764;76;22152;-57
2021/06/07 00:14:52;;;;;;;7.03;4.65;;;;;;;15.07;94.60;98631.85;1870718;76;22116;-60
2021/06/07 00:17:40;;;;;;;9.43;4.67;;;;;;;14.91;94.51;98636.38;1760625;81;21114;-59
2021/06/07 00:20:22;;;;;;;7.58;5.37;;;;;;;14.83;94.64;98636.89;1889950;76;22112;-61
2021/06/07 00:22:58;;;;;;;8.10;5.40;;;;;;;14.78;94.77;98633.92;1870620;76;22109;-58
2021/06/07 00:25:45;;;;;;;8.93;5.70;;;;;;;14.68;94.87;98629.27;1827623;78;21150;-60
2021/06/07 00:28:22;;;;;;;10.53;5.37;;;;;;;14.69;95.07;98633.60;1870598;76;22132;-59
2021/06/07 00:30:57;;;;;;;9.75;6.47;;;;;;;14.65;95.29;98634.50;1889892;76;22140;-60
2021/06/07 00:33:33;;;;;;;12.10;6.95;;;;;;;14.60;95.47;98634.98;1870643;76;22145;-62
2021/06/07 00:36:09;;;;;;;12.33;6.85;;;;;;;14.57;95.53;98636.33;1889957;76;22150;-62
2021/06/07 00:38:43;;;;;;;10.82;6.53;;;;;;;14.52;95.77;98638.48;1889987;76;20092;-60
2021/06/07 00:41:30;;;;;;;8.73;5.37;;;;;;;14.46;95.83;98635.97;1791698;80;21130;-59
2021/06/07 00:44:10;;;;;;;14.25;6.45;;;;;;;14.51;95.79;98631.59;1870740;76;22552;-62
2021/06/07 00:46:45;;;;;;;8.70;5.80;;;;;;;14.50;95.82;98631.17;1870824;76;22141;-61
2021/06/07 00:49:20;;;;;;;9.58;5.78;;;;;;;14.49;95.91;98630.73;1854681;76;27901;-62
2021/06/07 00:51:55;;;;;;;6.87;5.22;;;;;;;14.50;95.97;98627.28;1870631;76;22147;-63
2021/06/07 00:54:29;;;;;;;10.05;5.40;;;;;;;14.49;95.90;98632.03;1889925;76;22619;-58
2021/06/07 00:57:04;;;;;;;12.05;5.50;;;;;;;14.48;95.87;98632.92;1889935;76;22147;-61
2021/06/07 00:59:39;;;;;;;8.65;5.28;;;;;;;14.48;95.98;98635.97;1870646;76;22136;-60
2021/06/07 01:02:24;;;;;;;7.47;5.45;;;;;;;14.39;96.07;98641.23;1827813;77;21303;-60
2021/06/07 01:04:59;;;;;;;11.18;6.10;;;;;;;14.39;96.19;98639.49;1889923;76;22201;-61
2021/06/07 01:07:33;;;;;;;13.98;5.78;;;;;;;14.35;96.31;98639.12;1889932;76;22175;-62
2021/06/07 01:10:10;;;;;;;9.20;5.78;;;;;;;14.32;96.51;98630.03;1870644;76;22139;-61
2021/06/07 01:12:59;;;;;;;11.78;5.45;;;;;;;14.25;96.62;98637.48;1760394;80;21583;-61
2021/06/07 01:15:34;;;;;;;10.45;5.83;;;;;;;14.29;96.77;98633.97;1870647;76;22524;-63
2021/06/07 01:18:10;;;;;;;8.55;6.10;;;;;;;14.30;96.87;98646.09;1870635;76;22121;-61
2021/06/07 01:20:45;;;;;;;10.13;6.17;;;;;;;14.29;96.90;98646.50;1870650;76;22187;-60
2021/06/07 01:23:20;;;;;;;10.18;6.67;;;;;;;14.28;96.97;98645.23;1889934;76;22152;-62
2021/06/07 01:26:07;;;;;;;9.00;6.12;;;;;;;14.22;97.04;98650.46;1861293;77;21671;-60
2021/06/07 01:28:43;;;;;;;9.95;6.53;;;;;;;14.24;97.24;98650.87;1870584;76;22559;-61
2021/06/07 01:31:19;;;;;;;14.60;7.33;;;;;;;14.21;97.37;98647.02;1854662;76;27937;-61
2021/06/07 01:34:05;;;;;;;10.13;6.72;;;;;;;14.19;97.47;98651.80;1760479;81;21105;-60
2021/06/07 01:36:40;;;;;;;11.83;7.72;;;;;;;14.20;97.73;98658.72;1870642;76;22125;-59
2021/06/07 01:39:15;;;;;;;11.80;7.30;;;;;;;14.14;97.91;98653.13;1870593;76;22132;-58
2021/06/07 01:41:49;;;;;;;14.18;7.60;;;;;;;14.11;98.05;98650.11;1870720;76;22527;-61
2021/06/07 01:44:25;;;;;;;9.90;6.92;;;;;;;14.09;98.21;98662.27;1870603;76;22100;-58
2021/06/07 01:47:00;;;;;;;7.87;5.53;;;;;;;14.07;98.32;98659.27;1870569;76;22268;-59
2021/06/07 01:49:34;;;;;;;11.73;7.25;;;;;;;14.06;98.39;98654.92;1870630;76;22151;-59
2021/06/07 01:52:09;;;;;;;10.82;7.03;;;;;;;14.06;98.59;98650.59;1870650;76;22172;-61
2021/06/07 01:54:44;;;;;;;14.15;7.05;;;;;;;14.07;98.56;98652.33;1870602;76;22116;-62
2021/06/07 01:57:19;;;;;;;9.83;6.83;;;;;;;14.08;98.54;98649.30;1889919;76;22108;-63
2021/06/07 01:59:53;;;;;;;11.48;6.65;;;;;;;14.06;98.58;98653.63;1870642;76;22555;-61
2021/06/07 02:02:28;;;;;;;9.35;6.47;;;;;;;14.03;98.75;98650.63;1870789;76;22140;-61
2021/06/07 02:05:06;;;;;;;12.10;7.65;;;;;;;14.02;98.80;98654.10;1870558;76;22139;-63
2021/06/07 02:07:45;;;;;;;11.33;7.22;;;;;;;14.02;98.95;98653.25;1854964;76;28324;-61
2021/06/07 02:10:25;;;;;;;8.88;6.12;;;;;;;14.06;98.93;98654.92;1889908;76;22183;-66
2021/06/07 02:13:00;;;;;;;10.85;6.87;;;;;;;14.05;98.96;98659.27;1870754;76;22105;-63
2021/06/07 02:16:01;;;;;;;9.05;6.25;;;;;;;13.99;99.02;98659.33;1827639;77;21140;-61
2021/06/07 02:18:37;;;;;;;10.88;6.65;;;;;;;14.05;99.08;98659.27;1889897;76;22151;-62
2021/06/07 02:21:15;;;;;;;10.72;6.85;;;;;;;14.04;99.10;98657.55;1870555;76;22132;-61
2021/06/07 02:23:49;;;;;;;14.40;7.12;;;;;;;14.04;99.09;98655.37;1870807;76;22121;-60
2021/06/07 02:26:37;;;;;;;12.03;6.87;;;;;;;13.98;99.03;98666.66;1827734;78;21285;-61
2021/06/07 02:29:13;;;;;;;8.43;5.80;;;;;;;14.00;99.14;98659.73;1890004;76;22523;-61
2021/06/07 02:31:48;;;;;;;13.18;6.87;;;;;;;14.01;99.23;98676.16;1870610;76;22117;-61
2021/06/07 02:34:34;;;;;;;10.08;7.00;;;;;;;13.96;99.23;98677.48;1827668;78;21212;-60
2021/06/07 02:37:09;;;;;;;11.10;6.53;;;;;;;14.01;99.26;98679.61;1854583;76;27925;-60
2021/06/07 02:39:44;;;;;;;8.93;6.00;;;;;;;14.06;99.22;98681.73;1870665;76;22140;-60
2021/06/07 02:42:18;;;;;;;8.60;5.30;;;;;;;14.07;99.18;98675.69;1889908;76;22182;-58
2021/06/07 02:44:53;;;;;;;17.37;6.85;;;;;;;14.06;99.20;98680.43;1870603;76;22129;-60
2021/06/07 02:47:42;;;;;;;13.70;6.85;;;;;;;14.02;99.20;98688.27;1827866;78;21350;-60
2021/06/07 02:50:21;;;;;;;11.30;6.60;;;;;;;14.06;99.19;98681.73;1889929;76;22119;-57
2021/06/07 02:52:57;;;;;;;10.60;6.85;;;;;;;14.07;99.17;98688.66;1889913;76;22195;-61
2021/06/07 02:55:36;;;;;;;15.05;6.05;;;;;;;14.09;99.17;98681.73;1870674;76;22121;-60
2021/06/07 02:58:11;;;;;;;11.12;6.95;;;;;;;14.17;99.10;98680.78;1889911;76;22547;-59
2021/06/07 03:00:55;;;;;;;13.78;7.22;;;;;;;14.24;98.87;98688.95;1873850;76;27908;-58
2021/06/07 03:03:30;;;;;;;10.00;6.40;;;;;;;14.35;98.61;98688.44;1889933;76;22151;-61
2021/06/07 03:06:06;;;;;;;8.55;5.87;;;;;;;14.39;98.26;98683.63;1870679;76;22109;-63
2021/06/07 03:08:51;;;;;;;9.25;6.17;;;;;;;14.38;98.08;98691.00;1827833;78;21138;-62
2021/06/07 03:11:26;;;;;;;9.30;5.92;;;;;;;14.50;97.88;98688.30;1870653;76;22101;-63
2021/06/07 03:14:00;;;;;;;10.38;6.28;;;;;;;14.59;97.65;98686.52;1870634;76;22148;-59
2021/06/07 03:16:35;;;;;;;9.33;6.20;;;;;;;14.64;97.29;98686.89;1870670;76;22168;-63
2021/06/07 03:19:10;;;;;;;11.80;5.97;;;;;;;14.70;96.92;98685.52;1870631;76;22117;-59
2021/06/07 03:21:57;;;;;;;10.95;5.90;;;;;;;14.72;96.73;98688.97;1827777;78;21162;-61
2021/06/07 03:24:32;;;;;;;10.90;6.30;;;;;;;14.85;96.59;98681.90;1870620;76;22520;-59
2021/06/07 03:27:07;;;;;;;11.22;6.95;;;;;;;14.95;96.26;98678.77;1889931;76;22120;-60
2021/06/07 03:29:42;;;;;;;7.80;5.92;;;;;;;15.04;95.96;98681.72;1870626;76;22149;-61
2021/06/07 03:32:17;;;;;;;11.43;7.05;;;;;;;15.13;95.35;98673.80;1870653;76;22209;-58
2021/06/07 03:34:52;;;;;;;11.35;7.17;;;;;;;15.23;95.02;98677.15;1889960;76;22123;-59
2021/06/07 03:37:27;;;;;;;10.93;6.85;;;;;;;15.29;94.57;98675.34;1889897;76;22132;-58
2021/06/07 03:40:17;;;;;;;12.25;6.90;;;;;;;15.30;94.12;98682.25;1861474;77;21134;-61
2021/06/07 03:42:52;;;;;;;15.38;7.17;;;;;;;15.40;93.81;98686.90;1870644;76;22537;-59
2021/06/07 03:45:28;;;;;;;12.10;7.50;;;;;;;15.43;93.46;98684.70;1854671;76;27927;-61
2021/06/07 03:48:05;;;;;;;9.78;6.72;;;;;;;15.51;93.17;98685.45;1854656;76;28337;-60
2021/06/07 03:50:52;;;;;;;11.70;6.83;;;;;;;15.57;92.99;98681.45;1827781;78;21126;-59
2021/06/07 03:53:27;;;;;;;13.10;7.15;;;;;;;15.72;92.56;98679.11;1889938;76;20347;-58
2021/06/07 03:56:03;;;;;;;11.18;7.22;;;;;;;15.77;92.36;98685.11;1870636;76;22164;-60
2021/06/07 03:58:49;;;;;;;12.03;7.65;;;;;;;15.79;92.12;98692.02;1827488;77;21277;-58
2021/06/07 04:01:23;;;;;;;10.85;8.15;;;;;;;15.89;91.97;98692.74;1889929;76;22559;-62
2021/06/07 04:03:58;;;;;;;12.85;7.92;;;;;;;15.89;91.69;98691.44;1889901;76;22136;-61
2021/06/07 04:06:35;;;;;;;11.88;7.65;;;;;;;15.88;91.64;98695.39;1849637;76;22301;-61
2021/06/07 04:09:11;;;;;;;14.87;7.47;;;;;;;15.86;91.59;98695.40;1870487;76;20200;-63
2021/06/07 04:11:45;;;;;;;10.20;7.37;;;;;;;15.90;91.35;98698.80;1870614;76;22189;-63
2021/06/07 04:14:20;;;;;;;12.68;7.17;;;;;;;15.91;91.05;98702.70;1870604;76;22160;-59
2021/06/07 04:16:54;;;;;;;10.38;6.85;;;;;;;15.92;90.73;98707.45;1870606;76;22558;-62
2021/06/07 04:19:29;;;;;;;13.30;7.40;;;;;;;15.88;90.87;98705.80;1889909;76;22551;-64
2021/06/07 04:22:04;;;;;;;14.60;9.28;;;;;;;15.95;90.92;98709.59;1870610;76;22141;-61
2021/06/07 04:24:52;;;;;;;15.20;8.88;;;;;;;16.00;90.65;98706.89;1760271;81;21157;-59
2021/06/07 04:27:27;;;;;;;20.17;9.43;;;;;;;16.11;90.21;98711.51;1889978;76;22233;-63
2021/06/07 04:30:05;;;;;;;14.28;8.75;;;;;;;16.15;89.73;98714.46;1857610;76;22176;-60
2021/06/07 04:32:46;;;;;;;12.15;8.18;;;;;;;16.15;89.45;98713.16;1872016;76;22192;-61
2021/06/07 04:35:32;;;;;;;14.50;8.18;;;;;;;16.12;89.10;98713.22;1836595;77;21549;-62
2021/06/07 04:38:08;;;;;;;12.98;8.80;;;;;;;16.21;88.81;98710.92;1851585;76;22298;-62
2021/06/07 04:40:44;;;;;;;17.92;9.68;;;;;;;16.33;88.72;98714.61;1862661;76;22167;-61
2021/06/07 04:43:25;;;;;;;11.00;8.33;;;;;;;16.48;88.09;98716.11;1869687;76;22571;-62
2021/06/07 04:46:00;;;;;;;13.13;8.08;;;;;;;16.58;87.74;98722.88;1854462;76;28037;-62
2021/06/07 04:48:35;;;;;;;10.00;7.30;;;;;;;16.75;87.50;98722.59;1853667;76;22613;-62
2021/06/07 04:51:11;;;;;;;11.30;6.83;;;;;;;16.86;86.98;98723.73;1838037;76;28011;-63
2021/06/07 04:53:46;;;;;;;11.78;7.00;;;;;;;17.05;86.74;98726.87;1855240;76;22579;-60
2021/06/07 04:56:27;;;;;;;9.60;6.58;;;;;;;17.23;85.88;98729.11;1855340;76;22190;-62
2021/06/07 04:59:04;;;;;;;13.50;7.08;;;;;;;17.25;85.54;98731.67;1870355;76;22161;-63
2021/06/07 05:01:50;;;;;;;13.62;6.20;;;;;;;17.26;85.01;98732.95;1822717;77;21269;-61
2021/06/07 05:04:25;;;;;;;9.25;6.42;;;;;;;17.32;84.73;98735.43;1856336;76;22202;-62
2021/06/07 05:07:00;;;;;;;10.75;6.53;;;;;;;17.33;84.50;98735.02;1851900;76;22183;-62
2021/06/07 05:09:34;;;;;;;10.55;6.35;;;;;;;17.26;84.27;98742.08;1859044;76;22197;-62
2021/06/07 05:12:10;;;;;;;9.40;5.80;;;;;;;17.18;84.54;98736.62;1851745;76;22151;-62
2021/06/07 05:14:47;;;;;;;8.35;6.10;;;;;;;17.07;84.93;98731.17;1852081;76;22198;-63
2021/06/07 05:17:22;;;;;;;9.80;6.42;;;;;;;16.93;85.41;98730.55;1868551;76;22578;-61
2021/06/07 05:20:13;;;;;;;11.53;6.42;;;;;;;16.81;85.77;98729.02;1830656;78;21132;-62
2021/06/07 05:22:50;;;;;;;8.88;5.80;;;;;;;16.85;86.19;98740.27;1889841;76;22135;-63
2021/06/07 05:25:28;;;;;;;11.33;6.67;;;;;;;16.81;86.60;98730.77;1870401;76;22583;-63
2021/06/07 05:28:07;;;;;;;13.10;6.55;;;;;;;16.80;86.94;98732.97;1870510;76;22556;-63
2021/06/07 05:30:54;;;;;;;7.87;5.92;;;;;;;16.75;87.15;98736.08;1827541;78;21130;-62
2021/06/07 05:33:30;;;;;;;9.95;7.00;;;;;;;16.93;87.34;98724.03;1870392;76;22144;-64
2021/06/07 05:36:06;;;;;;;10.40;5.92;;;;;;;17.11;87.03;98722.83;1870612;76;22151;-64
2021/06/07 05:38:41;;;;;;;11.05;7.25;;;;;;;17.26;86.72;98724.28;1870562;76;22120;-64
2021/06/07 05:41:15;;;;;;;9.48;6.28;;;;;;;17.37;86.11;98724.91;1870559;76;22137;-63
2021/06/07 05:43:50;;;;;;;7.90;6.10;;;;;;;17.39;85.75;98727.05;1870555;76;22117;-62
2021/06/07 05:46:24;;;;;;;9.08;5.50;;;;;;;17.43;85.55;98731.33;1870284;76;22612;-59
2021/06/07 05:48:59;;;;;;;8.55;5.35;;;;;;;17.48;85.41;98732.54;1869836;76;22242;-61
2021/06/07 05:51:41;;;;;;;8.53;5.80;;;;;;;17.61;85.14;98735.75;1875550;76;22192;-64
2021/06/07 05:54:15;;;;;;;9.78;6.22;;;;;;;17.71;84.77;98734.66;1852808;76;22155;-64
2021/06/07 05:56:53;;;;;;;12.03;5.87;;;;;;;17.85;84.25;98730.01;1853802;76;22157;-64
2021/06/07 05:59:25;;;;;;;9.70;5.92;;;;;;;17.96;83.94;98733.68;1867129;76;22151;-62
2021/06/07 06:01:59;;;;;;;9.68;6.08;;;;;;;18.08;83.58;98741.23;1870574;76;22209;-64
2021/06/07 06:04:35;;;;;;;10.05;6.75;;;;;;;18.22;83.09;98739.62;1870580;76;22559;-64
2021/06/07 06:07:21;;;;;;;9.95;5.80;;;;;;;18.22;82.63;98739.62;1729056;82;21149;-64
2021/06/07 06:09:56;;;;;;;14.05;7.00;;;;;;;18.42;82.22;98734.78;1878664;76;22155;-61
2021/06/07 06:12:31;;;;;;;9.78;5.75;;;;;;;18.54;81.71;98740.59;1861916;76;22152;-63
2021/06/07 06:15:09;;;;;;;11.10;6.58;;;;;;;18.64;81.28;98742.07;1841141;76;22562;-61
2021/06/07 06:17:42;;;;;;;13.43;6.28;;;;;;;18.59;80.95;98740.02;1870831;76;22137;-62
2021/06/07 06:23:03;;;;;;;15.20;6.17;;;;;;;18.36;81.92;98741.90;1870544;76;22571;-63
2021/06/07 06:25:38;;;;;;;9.28;6.20;;;;;;;18.29;82.45;98741.63;1889855;76;22143;-66
2021/06/07 06:28:13;;;;;;;13.00;6.35;;;;;;;18.27;82.96;98740.80;1870742;76;22185;-63
2021/06/07 06:30:54;;;;;;;8.03;5.97;;;;;;;18.38;83.21;98744.89;1886815;76;22165;-66
2021/06/07 06:33:29;;;;;;;9.43;6.33;;;;;;;18.40;83.31;98736.57;1848738;76;22227;-62
2021/06/07 06:36:06;;;;;;;10.58;5.67;;;;;;;18.38;83.03;98746.19;1870189;76;20351;-66
2021/06/07 06:38:40;;;;;;;9.48;6.22;;;;;;;18.35;83.23;98743.66;1822689;76;28017;-64
2021/06/07 06:41:18;;;;;;;10.75;6.47;;;;;;;18.41;83.42;98743.50;1873777;76;28364;-62
2021/06/07 06:43:53;;;;;;;10.53;5.70;;;;;;;18.53;83.32;98744.11;1870575;76;22238;-62
2021/06/07 06:46:27;;;;;;;7.90;5.80;;;;;;;18.64;83.10;98742.92;1864619;76;22574;-64
2021/06/07 06:49:13;;;;;;;9.10;5.37;;;;;;;18.69;82.85;98745.43;1827881;77;21255;-65
2021/06/07 06:51:48;;;;;;;8.95;5.17;;;;;;;18.89;81.86;98741.48;1878929;76;22159;-65
2021/06/07 06:54:23;;;;;;;9.75;6.35;;;;;;;18.97;81.03;98743.44;1838609;76;22184;-65
2021/06/07 06:56:57;;;;;;;8.00;5.78;;;;;;;19.02;80.90;98737.64;1850636;76;22186;-65
2021/06/07 06:59:39;;;;;;;9.15;6.45;;;;;;;19.17;80.06;98742.45;1868203;76;22589;-64
2021/06/07 07:02:15;;;;;;;9.88;6.40;;;;;;;19.45;79.52;98748.22;1837588;76;38842;-65
2021/06/07 07:04:51;;;;;;;8.10;5.20;;;;;;;19.73;77.01;98753.09;1846864;76;20116;-64
2021/06/07 07:07:27;;;;;;;11.70;6.53;;;;;;;19.80;77.08;98750.31;1854516;76;27915;-65
2021/06/07 07:10:10;;;;;;;8.63;6.12;;;;;;;19.96;76.42;98750.23;1889853;76;22622;-62
2021/06/07 07:12:47;;;;;;;7.20;4.87;;;;;;;20.26;76.21;98744.95;1870333;76;22132;-62
2021/06/07 07:15:23;;;;;;;10.95;5.70;;;;;;;20.64;74.24;98742.88;1886782;76;22260;-64
2021/06/07 07:18:07;;;;;;;11.08;6.17;;;;;;;20.77;73.30;98736.30;1851585;76;22581;-64
2021/06/07 07:20:42;;;;;;;8.45;5.33;;;;;;;20.98;72.67;98744.73;1837657;76;28307;-64
2021/06/07 07:23:24;;;;;;;6.65;4.37;;;;;;;21.40;69.46;98735.44;1860638;76;22231;-64
2021/06/07 07:25:59;;;;;;;9.50;4.45;;;;;;;21.68;68.49;98738.73;1852882;76;22214;-64
2021/06/07 07:28:34;;;;;;;8.53;4.60;;;;;;;22.45;66.95;98733.11;1838825;76;28477;-63
2021/06/07 07:31:09;;;;;;;5.35;3.40;;;;;;;23.78;63.46;98744.05;1870715;76;22181;-64
2021/06/07 07:33:46;;;;;;;6.55;4.10;;;;;;;24.44;59.51;98735.14;1873752;76;38616;-63
2021/06/07 07:36:20;;;;;;;4.40;3.02;;;;;;;25.44;56.39;98742.00;1848774;77;20230;-65
2021/06/07 07:39:02;;;;;;;8.68;3.87;;;;;;;25.90;53.20;98752.74;1853100;76;22175;-66
2021/06/07 07:41:39;;;;;;;7.05;3.37;;;;;;;25.86;53.44;98752.98;1870045;76;22222;-63
2021/06/07 07:44:15;;;;;;;6.17;3.72;;;;;;;25.95;53.36;98753.78;1864556;76;22226;-64
2021/06/07 07:46:50;;;;;;;6.62;3.30;;;;;;;26.01;53.19;98760.08;1867416;76;22154;-64
2021/06/07 07:49:24;;;;;;;6.40;2.77;;;;;;;25.59;53.25;98753.50;1853384;76;22160;-61
2021/06/07 07:51:59;;;;;;;10.23;3.55;;;;;;;25.15;53.88;98758.01;1870908;76;22192;-67
2021/06/07 07:54:45;;;;;;;9.05;3.42;;;;;;;25.10;53.89;98761.36;1861019;77;21208;-65
2021/06/07 07:57:21;;;;;;;5.53;3.52;;;;;;;25.04;53.88;98758.57;1889884;76;22167;-62
2021/06/07 07:59:56;;;;;;;8.25;4.00;;;;;;;24.78;54.17;98766.94;1835059;77;22180;-64
2021/06/07 08:02:32;;;;;;;10.08;4.05;;;;;;;24.44;55.62;98765.48;1854466;76;29463;-64
2021/06/07 08:05:12;;;;;;;7.45;3.40;;;;;;;24.37;56.24;98760.58;1852603;76;22166;-65
2021/06/07 08:07:48;;;;;;;8.50;4.03;;;;;;;24.23;55.51;98769.17;1842054;76;22251;-62
2021/06/07 08:10:42;;;;;;;5.80;3.70;;;;;;;23.97;56.22;98770.42;1872940;75;22206;-61
2021/06/07 08:13:17;;;;;;;8.58;3.62;;;;;;;23.80;57.38;98763.28;1869810;76;22188;-62
2021/06/07 08:16:03;;;;;;;7.62;3.92;;;;;;;23.80;57.76;98769.88;1759181;81;21694;-62
2021/06/07 08:18:38;;;;;;;6.87;3.58;;;;;;;23.59;58.08;98761.99;1870684;76;22116;-62
2021/06/07 08:21:12;;;;;;;7.67;3.92;;;;;;;23.36;58.31;98761.71;1857982;76;22622;-62
2021/06/07 08:23:47;;;;;;;8.98;4.20;;;;;;;23.11;59.33;98760.61;1851735;76;22185;-63
2021/06/07 08:26:22;;;;;;;7.78;3.80;;;;;;;22.81;59.90;98761.42;1855634;76;22171;-62
2021/06/07 08:28:57;;;;;;;7.03;3.95;;;;;;;22.64;60.43;98756.01;1852681;76;22599;-62
2021/06/07 08:31:32;;;;;;;8.40;4.20;;;;;;;22.73;59.93;98761.75;1853706;76;22195;-62
2021/06/07 08:34:13;;;;;;;12.28;3.90;;;;;;;23.05;59.60;98758.26;1853185;76;22159;-63
2021/06/07 08:36:53;;;;;;;9.23;3.75;;;;;;;24.12;57.91;98762.22;1853268;76;22195;-63
2021/06/07 08:39:39;;;;;;;7.05;3.77;;;;;;;25.34;53.99;98765.40;1812826;78;21272;-63
2021/06/07 08:42:15;;;;;;;11.25;3.58;;;;;;;26.45;51.19;98759.83;1860421;76;22156;-63
2021/06/07 08:44:50;;;;;;;7.25;3.80;;;;;;;27.46;49.56;98771.09;1839453;76;27920;-64
2021/06/07 08:47:48;;;;;;;5.55;3.08;;;;;;;29.19;46.07;98767.88;1863339;75;22188;-61
2021/06/07 08:50:27;;;;;;;7.75;3.05;;;;;;;30.03;41.95;98768.24;1890149;76;22163;-64
2021/06/07 08:53:03;;;;;;;8.30;3.40;;;;;;;30.49;40.49;98772.89;1889919;76;22046;-64
2021/06/07 08:55:39;;;;;;;6.35;3.80;;;;;;;30.70;39.08;98773.09;1889914;76;22654;-62
2021/06/07 08:58:20;;;;;;;5.37;2.60;;;;;;;30.59;39.85;98775.23;1889827;76;22227;-65
2021/06/07 09:00:55;;;;;;;4.78;3.25;;;;;;;30.16;39.08;98772.19;1890120;76;22057;-63
2021/06/07 09:03:48;;;;;;;6.45;2.62;;;;;;;29.25;40.25;98783.87;1852394;77;21118;-62
2021/06/07 09:06:29;;;;;;;7.17;3.33;;;;;;;28.29;41.80;98765.43;1866401;76;22651;-64
2021/06/07 09:09:12;;;;;;;6.15;3.00;;;;;;;27.37;43.31;98773.82;1858803;76;22711;-62
2021/06/07 09:12:04;;;;;;;8.58;3.30;;;;;;;26.55;45.66;98771.14;1860971;76;22197;-61
2021/06/07 09:14:43;;;;;;;7.80;3.08;;;;;;;25.94;47.44;98769.28;1855991;76;22193;-63
2021/06/07 09:17:22;;;;;;;8.50;3.70;;;;;;;25.62;47.86;98771.86;1849376;76;22238;-61
2021/06/07 09:20:16;;;;;;;9.30;4.12;;;;;;;25.44;48.71;98778.11;1853062;76;22179;-62
2021/06/07 09:23:00;;;;;;;7.75;3.75;;;;;;;25.36;49.88;98772.38;1851127;76;22170;-60
2021/06/07 09:25:41;;;;;;;7.80;4.40;;;;;;;25.54;49.71;98771.39;1849889;76;28011;-61
2021/06/07 09:28:22;;;;;;;6.67;3.87;;;;;;;25.97;49.33;98767.30;1868018;76;22175;-62
2021/06/07 09:31:10;;;;;;;6.70;3.62;;;;;;;25.94;48.71;98764.84;1825711;78;21177;-62
2021/06/07 09:33:49;;;;;;;9.83;4.08;;;;;;;25.94;48.97;98758.70;1870373;76;22156;-63
2021/06/07 09:36:31;;;;;;;7.80;4.40;;;;;;;26.04;49.22;98758.58;1889805;76;22179;-62
2021/06/07 09:39:20;;;;;;;8.43;4.00;;;;;;;26.30;49.79;98753.61;1868582;76;22139;-64
2021/06/07 09:42:02;;;;;;;6.78;3.30;;;;;;;26.31;48.98;98746.07;1883699;76;22187;-63
2021/06/07 09:44:54;;;;;;;7.10;3.27;;;;;;;25.96;47.38;98743.13;1833838;77;21561;-62
2021/06/07 09:47:32;;;;;;;5.95;3.55;;;;;;;25.61;48.18;98744.19;1889821;76;22571;-63
2021/06/07 09:50:13;;;;;;;10.90;3.65;;;;;;;25.42;48.65;98724.52;1869667;76;22595;-64
2021/06/07 09:52:53;;;;;;;6.42;3.72;;;;;;;25.22;49.30;98742.27;1889851;76;22169;-64
2021/06/07 09:55:27;;;;;;;8.05;3.80;;;;;;;24.98;50.17;98732.94;1870781;76;22148;-63
2021/06/07 09:58:07;;;;;;;6.45;3.52;;;;;;;24.83;50.79;98733.25;1870449;76;22132;-63
2021/06/07 10:00:50;;;;;;;7.85;3.50;;;;;;;24.87;51.26;98731.70;1862881;76;22579;-63
2021/06/07 10:03:29;;;;;;;6.95;3.87;;;;;;;24.83;50.48;98722.25;1889873;76;22566;-63
2021/06/07 10:06:35;;;;;;;6.67;3.55;;;;;;;24.67;50.94;98719.98;1870351;76;22149;-63
2021/06/07 10:09:19;;;;;;;8.90;3.55;;;;;;;24.52;50.76;98715.02;1870447;76;22149;-63
2021/06/07 10:11:55;;;;;;;8.98;3.58;;;;;;;24.59;50.55;98706.34;1889861;76;22160;-63
2021/06/07 10:14:29;;;;;;;6.12;3.02;;;;;;;24.51;50.35;98694.00;1870530;76;22627;-62
2021/06/07 10:17:04;;;;;;;6.10;2.95;;;;;;;24.36;50.56;98697.75;1870520;76;22141;-63
2021/06/07 10:22:19;;;;;;;5.40;2.80;;;;;;;23.93;49.55;98701.62;1870463;76;22567;-63
2021/06/07 10:24:55;;;;;;;5.37;2.90;;;;;;;23.82;50.06;98696.41;1854562;76;27915;-63
2021/06/07 10:27:30;;;;;;;6.17;2.65;;;;;;;23.91;50.46;98691.14;1870549;76;22156;-63
2021/06/07 10:30:25;;;;;;;6.87;2.75;;;;;;;23.96;50.37;98691.78;1889789;76;22618;-62
2021/06/07 10:33:23;;;;;;;4.17;2.55;;;;;;;23.97;50.27;98681.64;1889823;76;22171;-62
2021/06/07 10:36:24;;;;;;;5.37;2.90;;;;;;;24.01;50.53;98677.91;1870235;76;22551;-62
2021/06/07 10:39:23;;;;;;;3.60;2.45;;;;;;;23.91;50.69;98674.02;1889850;76;22255;-63
2021/06/07 10:42:16;;;;;;;8.28;3.00;;;;;;;23.88;51.21;98672.84;1889866;76;22617;-62
2021/06/07 10:44:57;;;;;;;6.45;2.83;;;;;;;23.95;50.82;98674.27;1889871;76;22174;-63
2021/06/07 10:47:45;;;;;;;6.70;2.83;;;;;;;24.05;50.47;98667.62;1870529;76;22140;-63
2021/06/07 10:50:45;;;;;;;4.15;2.27;;;;;;;24.02;48.70;98669.09;1760509;81;21110;-65
2021/06/07 10:53:27;;;;;;;5.53;2.62;;;;;;;23.98;49.25;98675.43;1870551;76;22564;-65
2021/06/07 10:56:08;;;;;;;5.10;2.52;;;;;;;24.05;49.15;98671.57;1889888;76;22119;-64
2021/06/07 10:58:58;;;;;;;4.80;2.58;;;;;;;24.15;49.13;98669.81;1870572;76;22540;-63
2021/06/07 11:01:50;;;;;;;5.53;2.83;;;;;;;24.34;48.48;98671.91;1868790;76;22457;-63
2021/06/07 11:04:36;;;;;;;4.65;2.30;;;;;;;24.61;48.06;98668.86;1852852;76;22218;-64
2021/06/07 11:07:20;;;;;;;6.65;3.00;;;;;;;24.76;47.32;98656.20;1851228;76;22219;-64
2021/06/07 11:10:30;;;;;;;5.40;2.60;;;;;;;24.83;46.75;98676.06;1850497;76;22132;-64
2021/06/07 11:13:16;;;;;;;4.87;2.45;;;;;;;24.87;46.67;98665.71;1859859;76;22290;-63
2021/06/07 11:16:04;;;;;;;5.47;2.60;;;;;;;24.86;46.93;98658.73;1760557;81;21548;-64
2021/06/07 11:18:39;;;;;;;3.75;2.02;;;;;;;24.87;46.10;98672.31;1854714;76;28001;-65
2021/06/07 11:21:30;;;;;;;4.92;2.60;;;;;;;24.97;44.55;98665.24;1870345;76;22578;-64
2021/06/07 11:24:32;;;;;;;5.90;2.42;;;;;;;24.93;45.40;98647.38;1870520;76;22116;-64
2021/06/07 11:27:11;;;;;;;3.45;2.17;;;;;;;24.80;45.48;98652.44;1864473;76;22169;-64
2021/06/07 11:30:15;;;;;;;5.62;2.37;;;;;;;24.82;45.86;98646.63;1860582;76;22555;-62
2021/06/07 11:32:50;;;;;;;5.45;2.75;;;;;;;24.81;45.91;98642.77;1817282;77;22658;-63
2021/06/07 11:35:43;;;;;;;4.55;2.40;;;;;;;24.77;46.35;98643.84;1853262;76;22155;-63
2021/06/07 11:38:35;;;;;;;6.45;3.00;;;;;;;24.83;46.23;98636.91;1852011;76;22171;-63
2021/06/07 11:41:42;;;;;;;5.65;2.85;;;;;;;25.02;46.36;98636.81;1874759;75;22612;-62
2021/06/07 11:44:19;;;;;;;3.60;2.25;;;;;;;25.20;45.44;98635.84;1870561;76;22543;-63
2021/06/07 11:47:05;;;;;;;4.67;2.70;;;;;;;25.29;44.54;98634.03;1820631;78;21184;-63
2021/06/07 11:50:02;;;;;;;5.35;2.90;;;;;;;25.27;44.82;98630.63;1839361;76;28005;-63
2021/06/07 11:52:48;;;;;;;4.72;2.35;;;;;;;25.44;44.48;98627.51;1854688;76;22622;-63
2021/06/07 11:55:33;;;;;;;9.90;2.85;;;;;;;25.51;43.22;98628.87;1854635;76;28009;-62
2021/06/07 11:58:13;;;;;;;8.55;3.33;;;;;;;25.61;44.17;98635.36;1870392;76;22187;-63
2021/06/07 12:00:54;;;;;;;6.35;2.95;;;;;;;25.61;43.72;98626.58;1855130;76;22164;-62
2021/06/07 12:03:31;;;;;;;4.65;2.72;;;;;;;25.57;43.48;98615.34;1856017;76;22235;-64
2021/06/07 12:06:07;;;;;;;5.12;2.37;;;;;;;25.38;43.38;98623.42;1845513;76;22240;-63
2021/06/07 12:08:43;;;;;;;5.00;2.77;;;;;;;25.37;42.87;98624.38;1889761;76;22167;-65
2021/06/07 12:11:21;;;;;;;4.60;2.47;;;;;;;25.22;44.67;98629.17;1870530;76;22169;-62
2021/06/07 12:13:54;;;;;;;4.97;2.75;;;;;;;24.89;44.88;98632.17;1845491;76;22294;-63
2021/06/07 12:16:38;;;;;;;4.08;2.30;;;;;;;24.79;44.60;98629.63;1879740;76;22211;-61
2021/06/07 12:19:13;;;;;;;4.03;2.30;;;;;;;24.89;44.24;98624.26;1857034;76;22550;-63
2021/06/07 12:22:00;;;;;;;4.12;2.22;;;;;;;24.97;43.90;98630.92;1820804;78;21133;-63
2021/06/07 12:24:35;;;;;;;5.17;2.72;;;;;;;25.22;44.37;98618.13;1828506;77;22194;-61
2021/06/07 12:30:10;;;;;;;4.70;2.12;;;;;;;25.50;43.71;98627.19;1870415;76;22168;-62
2021/06/07 12:32:53;;;;;;;4.05;2.12;;;;;;;25.42;43.13;98630.73;1869736;76;22168;-63
2021/06/07 12:35:31;;;;;;;5.12;2.35;;;;;;;25.41;43.29;98628.53;1889856;76;22140;-62